Terminal Aerodrome Forecast
Issued by NWS

Current Version | Previous Version | Graphics & Text | Print | Product List | Glossary On
Versions: 1 2 3 4 5 6 7 8 9 10 11 12 13 14 15 16 17 18 19 20 21 22 23 24
144
FTUS41 KPBZ 161144
TAFMGW
TAF
KMGW 161144Z 1612/1712 32006KT 6SM -RA OVC025
     FM161600 31012G21KT 6SM -RA OVC010
     FM162200 34012G20KT P6SM BKN035
     FM170100 33005KT P6SM BKN035=

USA.gov is the U.S. government's official web portal to all federal, state and local government web resources and services.